Time;durP1;ratioP1;P1;durP2;ratioP2;P2;SDS_P1;SDS_P2;PMS_P1;PMS_P2;Temp;Humidity;BMP_temperature;BMP_pressure;BME280_temperature;BME280_humidity;BME280_pressure;Samples;Min_cycle;Max_cycle;Signal;HPM_P1;HPM_P2
2023/07/12 00:01:52;;;;;;;;;;;;;;;;;;4982588;28;19976;-63
2023/07/12 00:04:19;;;;;;;;;;;;;;;;;;4984109;28;19922;-64
2023/07/12 00:06:46;;;;;;;;;;;;;;;;;;4983422;28;19980;-64
2023/07/12 00:09:13;;;;;;;;;;;;;;;;;;4983565;28;19926;-63
2023/07/12 00:11:40;;;;;;;;;;;;;;;;;;4981240;28;19952;-64
2023/07/12 00:14:06;;;;;;;;;;;;;;;;;;4984095;28;19926;-62
2023/07/12 00:16:34;;;;;;;;;;;;;;;;;;4987901;28;19925;-63
2023/07/12 00:19:01;;;;;;;;;;;;;;;;;;4989204;28;19922;-62
2023/07/12 00:21:28;;;;;;;;;;;;;;;;;;4985224;28;19926;-63
2023/07/12 00:23:54;;;;;;;;;;;;;;;;;;4987486;28;19921;-62
2023/07/12 00:26:21;;;;;;;;;;;;;;;;;;4987570;28;20426;-63
2023/07/12 00:28:48;;;;;;;;;;;;;;;;;;4988616;28;20346;-62
2023/07/12 00:31:15;;;;;;;;;;;;;;;;;;4986289;28;19925;-63
2023/07/12 00:33:42;;;;;;;;;;;;;;;;;;4987037;28;19964;-64
2023/07/12 00:36:09;;;;;;;;;;;;;;;;;;4989053;28;19926;-64
2023/07/12 00:38:36;;;;;;;;;;;;;;;;;;4989685;28;19976;-64
2023/07/12 00:41:03;;;;;;;;;;;;;;;;;;4985134;28;20343;-64
2023/07/12 00:43:30;;;;;;;;;;;;;;;;;;4987153;28;19937;-64
2023/07/12 00:45:56;;;;;;;;;;;;;;;;;;4984674;28;19926;-64
2023/07/12 00:48:23;;;;;;;;;;;;;;;;;;4986226;28;19984;-64
2023/07/12 00:50:50;;;;;;;;;;;;;;;;;;4986416;28;19926;-64
2023/07/12 00:53:17;;;;;;;;;;;;;;;;;;4985175;28;19976;-64
2023/07/12 00:55:43;;;;;;;;;;;;;;;;;;4986252;28;19970;-64
2023/07/12 00:58:10;;;;;;;;;;;;;;;;;;4990096;28;19965;-64
2023/07/12 01:00:37;;;;;;;;;;;;;;;;;;4986366;28;19926;-64
2023/07/12 01:03:04;;;;;;;;;;;;;;;;;;4987801;28;19985;-64
2023/07/12 01:05:31;;;;;;;;;;;;;;;;;;4984552;28;19933;-64
2023/07/12 01:07:58;;;;;;;;;;;;;;;;;;4987064;28;19968;-64
2023/07/12 01:10:25;;;;;;;;;;;;;;;;;;4990335;28;20383;-64
2023/07/12 01:12:52;;;;;;;;;;;;;;;;;;4981641;28;19968;-64
2023/07/12 01:15:18;;;;;;;;;;;;;;;;;;4984701;28;19973;-64
2023/07/12 01:17:45;;;;;;;;;;;;;;;;;;4986948;28;19922;-64
2023/07/12 01:20:12;;;;;;;;;;;;;;;;;;4986092;28;19925;-64
2023/07/12 01:22:39;;;;;;;;;;;;;;;;;;4982801;28;19996;-64
2023/07/12 01:25:06;;;;;;;;;;;;;;;;;;4975655;28;19984;-64
2023/07/12 01:27:33;;;;;;;;;;;;;;;;;;4986377;28;19929;-64
2023/07/12 01:30:00;;;;;;;;;;;;;;;;;;4988575;28;19925;-63
2023/07/12 01:32:27;;;;;;;;;;;;;;;;;;4981372;28;19992;-64
2023/07/12 01:34:55;;;;;;;;;;;;;;;;;;4983839;28;19929;-63
2023/07/12 01:37:22;;;;;;;;;;;;;;;;;;4987583;28;19926;-63
2023/07/12 01:39:49;;;;;;;;;;;;;;;;;;4987387;28;20076;-64
2023/07/12 01:42:16;;;;;;;;;;;;;;;;;;4983653;28;19922;-63
2023/07/12 01:44:42;;;;;;;;;;;;;;;;;;4980515;28;20375;-63
2023/07/12 01:47:09;;;;;;;;;;;;;;;;;;4983653;28;20343;-63
2023/07/12 01:49:36;;;;;;;;;;;;;;;;;;4988160;28;19932;-63
2023/07/12 01:52:03;;;;;;;;;;;;;;;;;;4986727;28;19922;-64
2023/07/12 01:54:30;;;;;;;;;;;;;;;;;;4986838;28;19921;-63
2023/07/12 01:56:57;;;;;;;;;;;;;;;;;;4989972;28;19928;-63
2023/07/12 01:59:24;;;;;;;;;;;;;;;;;;4983289;28;20647;-63
2023/07/12 02:01:52;;;;;;;;;;;;;;;;;;4988271;28;20375;-63
2023/07/12 02:04:19;;;;;;;;;;;;;;;;;;4985685;28;19922;-63
2023/07/12 02:06:46;;;;;;;;;;;;;;;;;;4981987;28;20326;-63
2023/07/12 02:09:13;;;;;;;;;;;;;;;;;;4985633;28;20330;-61
2023/07/12 02:11:40;;;;;;;;;;;;;;;;;;4986190;28;19930;-63
2023/07/12 02:14:06;;;;;;;;;;;;;;;;;;4985960;28;19922;-63
2023/07/12 02:16:33;;;;;;;;;;;;;;;;;;4986375;28;19977;-64
2023/07/12 02:19:00;;;;;;;;;;;;;;;;;;4986082;28;19922;-63
2023/07/12 02:21:27;;;;;;;;;;;;;;;;;;4984497;28;19976;-63
2023/07/12 02:23:54;;;;;;;;;;;;;;;;;;4982371;28;20636;-63
2023/07/12 02:26:21;;;;;;;;;;;;;;;;;;4985022;28;20569;-64
2023/07/12 02:28:48;;;;;;;;;;;;;;;;;;4988627;28;19922;-64
2023/07/12 02:31:14;;;;;;;;;;;;;;;;;;4982881;28;19926;-63
2023/07/12 02:33:42;;;;;;;;;;;19.80;99.90;;;;;;4983843;28;20021;-63
2023/07/12 02:36:09;;;;;;;;;;;18.50;99.90;;;;;;4984914;28;19991;-63
2023/07/12 02:38:35;;;;;;;;;;;18.30;99.90;;;;;;4981400;28;19944;-63
2023/07/12 02:41:02;;;;;;;;;;;18.30;99.90;;;;;;4988425;28;19976;-64
2023/07/12 02:43:28;;;;;;;;;;;18.20;99.90;;;;;;4980991;28;19921;-63
2023/07/12 02:45:55;;;;;;;;;;;18.20;99.90;;;;;;4988096;28;19926;-63
2023/07/12 02:48:21;;;;;;;;;;;18.20;99.90;;;;;;4984458;28;19922;-63
2023/07/12 02:50:49;;;;;;;;;;;18.20;99.90;;;;;;4984245;28;20238;-63
2023/07/12 02:53:16;;;;;;;;;;;18.20;99.90;;;;;;4984771;28;19922;-62
2023/07/12 02:55:43;;;;;;;;;;;18.10;99.90;;;;;;4985092;28;19968;-63
2023/07/12 02:58:09;;;;;;;;;;;18.10;99.90;;;;;;4984000;28;19925;-63
2023/07/12 03:00:36;;;;;;;;;;;18.00;99.90;;;;;;4981096;28;19922;-62
2023/07/12 03:03:02;;;;;;;;;;;17.80;99.90;;;;;;4986733;28;19973;-63
2023/07/12 03:05:29;;;;;;;;;;;17.70;99.90;;;;;;4988882;28;19924;-64
2023/07/12 03:07:56;;;;;;;;;;;17.70;99.90;;;;;;4987861;28;19926;-64
2023/07/12 03:10:23;;;;;;;;;;;17.60;99.90;;;;;;4983625;28;19973;-63
2023/07/12 03:12:49;;;;;;;;;;;17.60;99.90;;;;;;4985419;28;19925;-64
2023/07/12 03:15:16;;;;;;;;;;;17.40;99.90;;;;;;4983923;28;19925;-63
2023/07/12 03:17:43;;;;;;;;;;;17.40;99.90;;;;;;4989549;28;19921;-63
2023/07/12 03:20:09;;;;;;;;;;;17.40;99.90;;;;;;4985153;28;19922;-63
2023/07/12 03:22:36;;;;;;;;;;;17.40;99.90;;;;;;4982044;28;19980;-63
2023/07/12 03:25:04;;;;;;;;;;;17.30;99.90;;;;;;4985521;28;19922;-63
2023/07/12 03:27:31;;;;;;;;;;;17.40;99.90;;;;;;4983944;28;20346;-63
2023/07/12 03:29:57;;;;;;;;;;;17.30;99.90;;;;;;4983365;28;19925;-64
2023/07/12 03:32:24;;;;;;;;;;;17.30;99.90;;;;;;4981778;28;20449;-63
2023/07/12 03:34:51;;;;;;;;;;;17.20;99.90;;;;;;4985369;28;19985;-63
2023/07/12 03:37:17;;;;;;;;;;;17.10;99.90;;;;;;4982324;28;19925;-63
2023/07/12 03:39:44;;;;;;;;;;;17.10;99.90;;;;;;4985380;28;20248;-63
2023/07/12 03:42:12;;;;;;;;;;;17.10;99.90;;;;;;4984987;28;19932;-63
2023/07/12 03:44:39;;;;;;;;;;;17.00;99.90;;;;;;4973185;28;19977;-63
2023/07/12 03:47:06;;;;;;;;;;;17.00;99.90;;;;;;4983153;28;20876;-63
2023/07/12 03:49:32;;;;;;;;;;;17.00;99.90;;;;;;4986543;28;20399;-63
2023/07/12 03:51:59;;;;;;;;;;;17.00;99.90;;;;;;4979922;28;19949;-64
2023/07/12 03:54:25;;;;;;;;;;;16.90;99.90;;;;;;4981955;28;19955;-63
2023/07/12 03:56:52;;;;;;;;;;;16.90;99.90;;;;;;4983860;28;19976;-62
2023/07/12 03:59:20;;;;;;;;;;;16.90;99.90;;;;;;4983813;28;19928;-63
2023/07/12 04:01:46;;;;;;;;;;;16.90;99.90;;;;;;4983485;28;20480;-63
2023/07/12 04:04:13;;;;;;;;;;;16.90;99.90;;;;;;4981369;28;19949;-63
2023/07/12 04:06:39;;;;;;;;;;;16.90;99.90;;;;;;4978312;28;20355;-63
2023/07/12 04:09:06;;;;;;;;;;;;;;;;;;4985134;28;19922;-62
2023/07/12 04:11:33;;;;;;;;;;;;;;;;;;4984843;28;20001;-63
2023/07/12 04:14:01;;;;;;;;;;;;;;;;;;4977584;28;19922;-63
2023/07/12 04:16:28;;;;;;;;;;;;;;;;;;4989149;28;19922;-62
2023/07/12 04:18:55;;;;;;;;;;;;;;;;;;4987107;28;19956;-62
2023/07/12 04:21:22;;;;;;;;;;;;;;;;;;4981161;28;19922;-63
2023/07/12 04:23:49;;;;;;;;;;;;;;;;;;4982210;28;19973;-63
2023/07/12 04:26:17;;;;;;;;;;;;;;;;;;4984380;28;19930;-62
2023/07/12 04:28:48;;;;;;;;;;;;;;;;;;4983733;28;19949;-63
2023/07/12 04:31:15;;;;;;;;;;;;;;;;;;4982080;28;19930;-63
2023/07/12 04:33:42;;;;;;;;;;;;;;;;;;4984256;28;19925;-64
2023/07/12 04:36:09;;;;;;;;;;;;;;;;;;4987221;28;19922;-62
2023/07/12 04:38:36;;;;;;;;;;;;;;;;;;4986909;28;19926;-62
2023/07/12 04:41:03;;;;;;;;;;;;;;;;;;4981559;28;19985;-62
2023/07/12 04:43:30;;;;;;;;;;;;;;;;;;4983864;28;19926;-62
2023/07/12 04:45:56;;;;;;;;;;;;;;;;;;4980289;28;20363;-63
2023/07/12 04:48:23;;;;;;;;;;;;;;;;;;4990625;28;20294;-63
2023/07/12 04:50:51;;;;;;;;;;;;;;;;;;4984489;28;19929;-63
2023/07/12 04:53:17;;;;;;;;;;;;;;;;;;4982026;28;19984;-64
2023/07/12 04:55:44;;;;;;;;;;;;;;;;;;4987531;28;20358;-63
2023/07/12 04:58:11;;;;;;;;;;;;;;;;;;4985733;28;20441;-63
2023/07/12 05:00:38;;;;;;;;;;;;;;;;;;4985017;28;20011;-63
2023/07/12 05:03:05;;;;;;;;;;;;;;;;;;4984423;28;19926;-63
2023/07/12 05:05:32;;;;;;;;;;;;;;;;;;4990459;28;19922;-64
2023/07/12 05:07:59;;;;;;;;;;;;;;;;;;4988094;28;19963;-65
2023/07/12 05:10:26;;;;;;;;;;;;;;;;;;4988507;28;19987;-65
2023/07/12 05:12:53;;;;;;;;;;;;;;;;;;4989651;28;20363;-64
2023/07/12 05:15:20;;;;;;;;;;;;;;;;;;4989563;28;19929;-62
2023/07/12 05:17:47;;;;;;;;;;;;;;;;;;4990032;28;19972;-63
2023/07/12 05:20:14;;;;;;;;;;;;;;;;;;4984707;28;19926;-63
2023/07/12 05:22:40;;;;;;;;;;;;;;;;;;4985253;28;19921;-62
2023/07/12 05:25:07;;;;;;;;;;;;;;;;;;4983430;28;19922;-61
2023/07/12 05:27:34;;;;;;;;;;;;;;;;;;4983708;28;20479;-62
2023/07/12 05:30:01;;;;;;;;;;;;;;;;;;4991666;28;19929;-62
2023/07/12 05:32:28;;;;;;;;;;;;;;;;;;4985617;28;19976;-62
2023/07/12 05:34:55;;;;;;;;;;;;;;;;;;4984385;28;19922;-61
2023/07/12 05:37:22;;;;;;;;;;;;;;;;;;4983251;28;19988;-63
2023/07/12 05:39:49;;;;;;;;;;;;;;;;;;4984735;28;20383;-63
2023/07/12 05:42:16;;;;;;;;;;;;;;;;;;4985025;28;20000;-60
2023/07/12 05:44:43;;;;;;;;;;;;;;;;;;4986049;28;19967;-56
2023/07/12 05:47:10;;;;;;;;;;;;;;;;;;4988690;28;19976;-59
2023/07/12 05:49:36;;;;;;;;;;;;;;;;;;4985483;28;19933;-61
2023/07/12 05:52:03;;;;;;;;;;;;;;;;;;4985935;28;20435;-61
2023/07/12 05:54:30;;;;;;;;;;;;;;;;;;4987554;28;20354;-62
2023/07/12 05:56:57;;;;;;;;;;;;;;;;;;4985997;28;19928;-57
2023/07/12 05:59:24;;;;;;;;;;;;;;;;;;4984054;28;20335;-60
2023/07/12 06:01:51;;;;;;;;;;;;;;;;;;4982074;28;19921;-61
2023/07/12 06:04:18;;;;;;;;;;;;;;;;;;4985546;28;19937;-61
2023/07/12 06:06:45;;;;;;;;;;;;;;;;;;4983444;28;19976;-60
2023/07/12 06:09:12;;;;;;;;;;;;;;;;;;4982993;28;20379;-61
2023/07/12 06:11:39;;;;;;;;;;;;;;;;;;4983259;28;19922;-58
2023/07/12 06:14:06;;;;;;;;;;;;;;;;;;4986652;28;19929;-59
2023/07/12 06:16:33;;;;;;;;;;;;;;;;;;4992956;28;19995;-63
2023/07/12 06:19:00;;;;;;;;;;;;;;;;;;4986051;28;20406;-62
2023/07/12 06:21:27;;;;;;;;;;;;;;;;;;4984852;28;19991;-62
2023/07/12 06:23:57;;;;;;;;;;;;;;;;;;4983252;28;19926;-61
2023/07/12 06:26:24;;;;;;;;;;;;;;;;;;4982439;28;20335;-58
2023/07/12 06:28:50;;;;;;;;;;;;;;;;;;4985487;28;19926;-60
2023/07/12 06:31:17;;;;;;;;;;;;;;;;;;4981637;28;19977;-60
2023/07/12 06:33:44;;;;;;;;;;;;;;;;;;4985502;28;19929;-59
2023/07/12 06:36:11;;;;;;;;;;;;;;;;;;4985679;28;19922;-61
2023/07/12 06:38:38;;;;;;;;;;;;;;;;;;4979433;28;19929;-61
2023/07/12 06:41:05;;;;;;;;;;;;;;;;;;4985371;28;19922;-61
2023/07/12 06:43:32;;;;;;;;;;;;;;;;;;4981739;28;19926;-59
2023/07/12 06:45:58;;;;;;;;;;;;;;;;;;4985808;28;19968;-59
2023/07/12 06:48:25;;;;;;;;;;;;;;;;;;4986318;28;19977;-63
2023/07/12 06:50:52;;;;;;;;;;;;;;;;;;4987548;28;19921;-62
2023/07/12 06:53:19;;;;;;;;;;;;;;;;;;4984879;28;19925;-62
2023/07/12 06:55:46;;;;;;;;;;;;;;;;;;4984704;28;19925;-64
2023/07/12 06:58:13;;;;;;;;;;;;;;;;;;4983569;28;19922;-62
2023/07/12 07:00:40;;;;;;;;;;;;;;;;;;4983270;28;19922;-63
2023/07/12 07:03:09;;;;;;;;;;;;;;;;;;4984373;28;19996;-63
2023/07/12 07:05:36;;;;;;;;;;;;;;;;;;4983382;28;20021;-63
2023/07/12 07:08:03;;;;;;;;;;;;;;;;;;4984671;28;20383;-63
2023/07/12 07:10:30;;;;;;;;;;;;;;;;;;4982087;28;19925;-63
2023/07/12 07:12:57;;;;;;;;;;;;;;;;;;4981090;28;20272;-63
2023/07/12 07:15:24;;;;;;;;;;;;;;;;;;4983519;28;19937;-62
2023/07/12 07:17:51;;;;;;;;;;;;;;;;;;4987396;28;20338;-64
2023/07/12 07:20:18;;;;;;;;;;;;;;;;;;4981217;28;19926;-63
2023/07/12 07:22:45;;;;;;;;;;;;;;;;;;4983487;28;19926;-62
2023/07/12 07:25:11;;;;;;;;;;;;;;;;;;4983725;28;19921;-63
2023/07/12 07:27:38;;;;;;;;;;;;;;;;;;4983078;28;19968;-62
2023/07/12 07:30:05;;;;;;;;;;;;;;;;;;4982582;28;19953;-58
2023/07/12 07:32:32;;;;;;;;;;;;;;;;;;4980856;28;19929;-64
2023/07/12 07:34:59;;;;;;;;;;;;;;;;;;4990321;28;19968;-62
2023/07/12 07:37:26;;;;;;;;;;;;;;;;;;4984508;28;20466;-62
2023/07/12 07:39:53;;;;;;;;;;;;;;;;;;4986465;28;19922;-60
2023/07/12 07:42:20;;;;;;;;;;;;;;;;;;4985407;28;19933;-59
2023/07/12 07:44:46;;;;;;;;;;;;;;;;;;4986708;28;20316;-64
2023/07/12 07:47:14;;;;;;;;;;;;;;;;;;4983246;28;19992;-62
2023/07/12 07:49:41;;;;;;;;;;;;;;;;;;4983248;28;20442;-58
2023/07/12 07:52:08;;;;;;;;;;;;;;;;;;4986525;28;20275;-61
2023/07/12 07:54:35;;;;;;;;;;;;;;;;;;4983749;28;19930;-60
2023/07/12 07:57:02;;;;;;;;;;;;;;;;;;4984782;28;19929;-63
2023/07/12 07:59:29;;;;;;;;;;;;;;;;;;4981882;28;19992;-62
2023/07/12 08:01:56;;;;;;;;;;;;;;;;;;4980242;28;20366;-61
2023/07/12 08:04:23;;;;;;;;;;;;;;;;;;4988535;28;19929;-62
2023/07/12 08:06:50;;;;;;;;;;;;;;;;;;4985920;28;19926;-63
2023/07/12 08:09:16;;;;;;;;;;;;;;;;;;4984269;28;19925;-62
2023/07/12 08:11:43;;;;;;;;;;;;;;;;;;4983839;28;19921;-63
2023/07/12 08:14:10;;;;;;;;;;;;;;;;;;4987363;28;19984;-61
2023/07/12 08:16:37;;;;;;;;;;;;;;;;;;4987456;28;19953;-62
2023/07/12 08:19:04;;;;;;;;;;;;;;;;;;4988400;28;19921;-61
2023/07/12 08:21:31;;;;;;;;;;;;;;;;;;4984763;28;19988;-60
2023/07/12 08:23:58;;;;;;;;;;;;;;;;;;4981658;28;20046;-58
2023/07/12 08:26:25;;;;;;;;;;;;;;;;;;4979601;28;19921;-57
2023/07/12 08:28:52;;;;;;;;;;;;;;;;;;4981008;28;19934;-57
2023/07/12 08:31:19;;;;;;;;;;;;;;;;;;4980204;28;19933;-61
2023/07/12 08:33:46;;;;;;;;;;;;;;;;;;4982359;28;19922;-61
2023/07/12 08:36:13;;;;;;;;;;;;;;;;;;4986124;28;19933;-60
2023/07/12 08:38:40;;;;;;;;;;;;;;;;;;4987568;28;20322;-63
2023/07/12 08:41:07;;;;;;;;;;;;;;;;;;4985685;28;19988;-62
2023/07/12 08:43:34;;;;;;;;;;;;;;;;;;4986366;28;19930;-63
2023/07/12 08:46:01;;;;;;;;;;;;;;;;;;4984409;28;19922;-62
2023/07/12 08:48:27;;;;;;;;;;;;;;;;;;4988773;28;19930;-63
2023/07/12 08:50:55;;;;;;;;;;;;;;;;;;4988419;28;19926;-60
2023/07/12 08:53:22;;;;;;;;;;;;;;;;;;4985831;28;19925;-61
2023/07/12 08:55:49;;;;;;;;;;;;;;;;;;4984199;28;19928;-60
2023/07/12 08:58:17;;;;;;;;;;;;;;;;;;4984282;28;19976;-60
2023/07/12 09:00:44;;;;;;;;;;;;;;;;;;4983889;28;20511;-62
2023/07/12 09:03:11;;;;;;;;;;;;;;;;;;4983131;28;20012;-62
2023/07/12 09:05:38;;;;;;;;;;;;;;;;;;4984912;28;19929;-62
2023/07/12 09:08:05;;;;;;;;;;;;;;;;;;4986391;28;19997;-62
2023/07/12 09:10:33;;;;;;;;;;;;;;;;;;4983820;28;20013;-62
2023/07/12 09:13:00;;;;;;;;;;;;;;;;;;4984042;28;19922;-62
2023/07/12 09:15:27;;;;;;;;;;;;;;;;;;4984339;28;20362;-62
2023/07/12 09:17:54;;;;;;;;;;;;;;;;;;4990976;28;19991;-63
2023/07/12 09:20:20;;;;;;;;;;;;;;;;;;4986034;28;19934;-61
2023/07/12 09:22:48;;;;;;;;;;;;;;;;;;4983802;28;19933;-61
2023/07/12 09:25:15;;;;;;;;;;;;;;;;;;4983438;28;19922;-62
2023/07/12 09:27:42;;;;;;;;;;;;;;;;;;4975496;28;19922;-62
2023/07/12 09:30:09;;;;;;;;;;;;;;;;;;4984501;28;19980;-59
2023/07/12 09:32:36;;;;;;;;;;;;;;;;;;4989618;28;20379;-61
2023/07/12 09:35:03;;;;;;;;;;;;;;;;;;4986335;28;20301;-57
2023/07/12 09:37:30;;;;;;;;;;;;;;;;;;4985699;28;19984;-60
2023/07/12 09:39:56;;;;;;;;;;;;;;;;;;4982074;28;19929;-61
2023/07/12 09:42:23;;;;;;;;;;;;;;;;;;4984885;28;19926;-61
2023/07/12 09:44:50;;;;;;;;;;;;;;;;;;4986330;28;20342;-60
2023/07/12 09:47:17;;;;;;;;;;;;;;;;;;4984105;28;19996;-61
2023/07/12 09:49:44;;;;;;;;;;;;;;;;;;4986007;28;19921;-63
2023/07/12 09:52:11;;;;;;;;;;;;;;;;;;4986359;28;19996;-63
2023/07/12 09:54:38;;;;;;;;;;;;;;;;;;4982841;28;19926;-63
2023/07/12 09:57:04;;;;;;;;;;;;;;;;;;4989214;28;19921;-64
2023/07/12 09:59:31;;;;;;;;;;;;;;;;;;4983948;28;19922;-63
2023/07/12 10:01:58;;;;;;;;;;;;;;;;;;4982448;28;19949;-65
2023/07/12 10:04:25;;;;;;;;;;;;;;;;;;4982143;28;19922;-62
2023/07/12 10:06:52;;;;;;;;;;;;;;;;;;4985921;28;19925;-62
2023/07/12 10:09:20;;;;;;;;;;;;;;;;;;4982438;28;19922;-63
2023/07/12 10:11:47;;;;;;;;;;;;;;;;;;4983726;28;19925;-62
2023/07/12 10:14:15;;;;;;;;;;;;;;;;;;4984315;28;19921;-63
2023/07/12 10:16:42;;;;;;;;;;;;;;;;;;4985161;28;19922;-63
2023/07/12 10:19:08;;;;;;;;;;;;;;;;;;4984820;28;19937;-63
2023/07/12 10:21:36;;;;;;;;;;;;;;;;;;4985116;28;19921;-64
2023/07/12 10:24:02;;;;;;;;;;;;;;;;;;4984274;28;19933;-63
2023/07/12 10:26:31;;;;;;;;;;;;;;;;;;4982817;28;19926;-63
2023/07/12 10:28:58;;;;;;;;;;;;;;;;;;4986747;28;19926;-63
2023/07/12 10:31:25;;;;;;;;;;;;;;;;;;4982693;28;19949;-63
2023/07/12 10:33:51;;;;;;;;;;;;;;;;;;4977825;28;19929;-64
2023/07/12 10:36:19;;;;;;;;;;;;;;;;;;4987125;28;19934;-65
2023/07/12 10:38:45;;;;;;;;;;;;;;;;;;4984589;28;20374;-62
2023/07/12 10:41:12;;;;;;;;;;;;;;;;;;4982895;28;19926;-62
2023/07/12 10:43:39;;;;;;;;;;;;;;;;;;4981280;28;19976;-63
2023/07/12 10:46:06;;;;;;;;;;;;;;;;;;4984656;28;19929;-62
2023/07/12 10:48:33;;;;;;;;;;;;;;;;;;4984324;28;19926;-62
2023/07/12 10:51:00;;;;;;;;;;;;;;;;;;4985937;28;19922;-62
2023/07/12 10:53:27;;;;;;;;;;;;;;;;;;4983914;28;20373;-63
2023/07/12 10:55:54;;;;;;;;;;;;;;;;;;4985829;28;19922;-63
2023/07/12 10:58:21;;;;;;;;;;;;;;;;;;4983616;28;19928;-63
2023/07/12 11:00:48;;;;;;;;;;;;;;;;;;4982722;28;20280;-62
2023/07/12 11:03:14;;;;;;;;;;;;;;;;;;4981526;28;19922;-61
2023/07/12 11:05:41;;;;;;;;;;;;;;;;;;4981205;28;20434;-59
2023/07/12 11:08:09;;;;;;;;;;;;;;;;;;4982614;28;19930;-62
2023/07/12 11:10:36;;;;;;;;;;;;;;;;;;4980088;28;20306;-64
2023/07/12 11:13:03;;;;;;;;;;;;;;;;;;4983247;28;19925;-65
2023/07/12 11:15:30;;;;;;;;;;;;;;;;;;4986385;28;19928;-64
2023/07/12 11:17:56;;;;;;;;;;;;;;;;;;4988818;28;19941;-63
2023/07/12 11:20:23;;;;;;;;;;;;;;;;;;4981153;28;19922;-64
2023/07/12 11:22:51;;;;;;;;;;;;;;;;;;4981628;28;20294;-64
2023/07/12 11:25:18;;;;;;;;;;;;;;;;;;4981469;28;19932;-65
2023/07/12 11:27:44;;;;;;;;;;;;;;;;;;4985728;28;20334;-64
2023/07/12 11:30:11;;;;;;;;;;;;;;;;;;4984621;28;19925;-64
2023/07/12 11:32:38;;;;;;;;;;;;;;;;;;4981128;28;19987;-64
2023/07/12 11:35:05;;;;;;;;;;;;;;;;;;4983624;28;19922;-65
2023/07/12 11:37:32;;;;;;;;;;;;;;;;;;4986093;28;19977;-66
2023/07/12 11:39:59;;;;;;;;;;;;;;;;;;4985752;28;19922;-65
2023/07/12 11:42:26;;;;;;;;;;;;;;;;;;4982776;28;19929;-65
2023/07/12 11:44:53;;;;;;;;;;;;;;;;;;4985152;28;19922;-64
2023/07/12 11:47:20;;;;;;;;;;;;;;;;;;4984610;28;19926;-65
2023/07/12 11:49:47;;;;;;;;;;;;;;;;;;4987022;28;19953;-63
2023/07/12 11:52:15;;;;;;;;;;;;;;;;;;4987637;28;19929;-64
2023/07/12 11:54:42;;;;;;;;;;;;;;;;;;4980086;28;19933;-66
2023/07/12 11:57:09;;;;;;;;;;;;;;;;;;4984098;28;19933;-63
2023/07/12 11:59:37;;;;;;;;;;;;;;;;;;4980111;28;19929;-63
2023/07/12 12:02:05;;;;;;;;;;;;;;;;;;4983818;28;19922;-65
2023/07/12 12:04:31;;;;;;;;;;;;;;;;;;4982858;28;19980;-65
2023/07/12 12:06:59;;;;;;;;;;;;;;;;;;4989183;28;19926;-67
2023/07/12 12:09:26;;;;;;;;;;;;;;;;;;4988448;28;19949;-63
2023/07/12 12:11:54;;;;;;;;;;;;;;;;;;4984851;28;20029;-63
2023/07/12 12:14:21;;;;;;;;;;;;;;;;;;4983656;28;20000;-61
2023/07/12 12:16:48;;;;;;;;;;;;;;;;;;4982426;28;19922;-57
2023/07/12 12:19:15;;;;;;;;;;;;;;;;;;4983821;28;20379;-58
2023/07/12 12:21:41;;;;;;;;;;;;;;;;;;4983576;28;19921;-61
2023/07/12 12:24:08;;;;;;;;;;;;;;;;;;4981403;28;19926;-63
2023/07/12 12:26:36;;;;;;;;;;;;;;;;;;4982957;28;19926;-61
2023/07/12 12:29:03;;;;;;;;;;;;;;;;;;4983975;28;20318;-62
2023/07/12 12:31:30;;;;;;;;;;;;;;;;;;4978366;28;19921;-60
2023/07/12 12:33:57;;;;;;;;;;;;;;;;;;4972756;28;20064;-58
2023/07/12 12:36:24;;;;;;;;;;;;;;;;;;4987438;28;19952;-59
2023/07/12 12:38:51;;;;;;;;;;;;;;;;;;4983039;28;20403;-59
2023/07/12 12:41:18;;;;;;;;;;;;;;;;;;4980889;28;20006;-61
2023/07/12 12:43:44;;;;;;;;;;;;;;;;;;4980263;28;19922;-61
2023/07/12 12:46:11;;;;;;;;;;;;;;;;;;4983843;28;19925;-62
2023/07/12 12:48:38;;;;;;;;;;;;;;;;;;4984000;28;19928;-63
2023/07/12 12:51:05;;;;;;;;;;;;;;;;;;4983223;28;20362;-61
2023/07/12 12:53:32;;;;;;;;;;;;;;;;;;4982722;28;19925;-62
2023/07/12 12:55:59;;;;;;;;;;;;;;;;;;4981998;28;19926;-62
2023/07/12 12:58:26;;;;;;;;;;;;;;;;;;4982814;28;20307;-59
2023/07/12 13:00:54;;;;;;;;;;;;;;;;;;4977696;28;19930;-60
2023/07/12 13:03:21;;;;;;;;;;;;;;;;;;4985881;28;20032;-65
2023/07/12 13:05:48;;;;;;;;;;;;;;;;;;4982519;28;19976;-63
2023/07/12 13:08:16;;;;;;;;;;;;;;;;;;4981456;28;19922;-61
2023/07/12 13:10:43;;;;;;;;;;;;;;;;;;4982111;28;19922;-61
2023/07/12 13:13:10;;;;;;;;;;;;;;;;;;4981240;28;19926;-61
2023/07/12 13:15:37;;;;;;;;;;;;;;;;;;4984691;28;20445;-61
2023/07/12 13:18:04;;;;;;;;;;;;;;;;;;4982825;28;20331;-62
2023/07/12 13:20:33;;;;;;;;;;;;;;;;;;4983488;28;20437;-63
2023/07/12 13:23:00;;;;;;;;;;;;;;;;;;4988621;28;19944;-62
2023/07/12 13:25:27;;;;;;;;;;;;;;;;;;4986781;28;19930;-61
2023/07/12 13:27:54;;;;;;;;;;;;;;;;;;4985418;28;19922;-63
2023/07/12 13:30:21;;;;;;;;;;;;;;;;;;4985499;28;20362;-63
2023/07/12 13:32:48;;;;;;;;;;;;;;;;;;4990957;28;20375;-65
2023/07/12 13:35:15;;;;;;;;;;;;;;;;;;4986411;28;20350;-65
2023/07/12 13:37:42;;;;;;;;;;;;;;;;;;4986065;28;19925;-64
2023/07/12 13:40:08;;;;;;;;;;;;;;;;;;4983870;28;20038;-64
2023/07/12 13:42:35;;;;;;;;;;;;;;;;;;4980247;28;19922;-64
2023/07/12 13:45:02;;;;;;;;;;;;;;;;;;4986622;28;19980;-62
2023/07/12 13:47:29;;;;;;;;;;;;;;;;;;4987591;28;19926;-62
2023/07/12 13:49:56;;;;;;;;;;;;;;;;;;4978694;28;20009;-65
2023/07/12 13:52:23;;;;;;;;;;;;;;;;;;4983735;28;20478;-67
2023/07/12 13:54:50;;;;;;;;;;;;;;;;;;4987497;28;19921;-63
2023/07/12 13:57:17;;;;;;;;;;;;;;;;;;4985970;28;19976;-63
2023/07/12 13:59:44;;;;;;;;;;;;;;;;;;4985754;28;19994;-64
2023/07/12 14:02:11;;;;;;;;;;;;;;;;;;4985400;28;19922;-64
2023/07/12 14:04:38;;;;;;;;;;;;;;;;;;4981462;28;19968;-64
2023/07/12 14:07:05;;;;;;;;;;;;;;;;;;4987096;28;19976;-63
2023/07/12 14:09:32;;;;;;;;;;;;;;;;;;4977070;28;19921;-63
2023/07/12 14:12:01;;;;;;;;;;;;;;;;;;4989577;28;19958;-63
2023/07/12 14:14:28;;;;;;;;;;;;;;;;;;4984625;28;19972;-63
2023/07/12 14:16:55;;;;;;;;;;;;;;;;;;4987965;28;19921;-63
2023/07/12 14:19:22;;;;;;;;;;;;;;;;;;4994462;28;19922;-65
2023/07/12 14:21:48;;;;;;;;;;;;;;;;;;4987908;28;19921;-64
2023/07/12 14:24:15;;;;;;;;;;;;;;;;;;4985989;28;19922;-64
2023/07/12 14:26:42;;;;;;;;;;;;;;;;;;4985640;28;19972;-63
2023/07/12 14:29:09;;;;;;;;;;;;;;;;;;4985093;28;19926;-63
2023/07/12 14:31:37;;;;;;;;;;;;;;;;;;4982346;28;20005;-64
2023/07/12 14:34:04;;;;;;;;;;;;;;;;;;4984895;28;20025;-63
2023/07/12 14:36:31;;;;;;;;;;;;;;;;;;4986497;28;19928;-63
2023/07/12 14:38:58;;;;;;;;;;;;;;;;;;4989615;28;19921;-63
2023/07/12 14:41:25;;;;;;;;;;;;;;;;;;4984000;28;20236;-63
2023/07/12 14:43:51;;;;;;;;;;;;;;;;;;4985012;28;19922;-63
2023/07/12 14:46:18;;;;;;;;;;;;;;;;;;4990869;28;19992;-63
2023/07/12 14:48:45;;;;;;;;;;;;;;;;;;4986319;28;19932;-64
2023/07/12 14:51:12;;;;;;;;;;;;;;;;;;4982574;28;19922;-63
2023/07/12 14:53:39;;;;;;;;;;;;;;;;;;4983389;28;19926;-63
2023/07/12 14:56:06;;;;;;;;;;;;;;;;;;4981462;28;20379;-62
2023/07/12 14:58:33;;;;;;;;;;;;;;;;;;4984759;28;20580;-63
2023/07/12 15:01:00;;;;;;;;;;;;;;;;;;4984436;28;19929;-63
2023/07/12 15:03:28;;;;;;;;;;;;;;;;;;4982290;28;19981;-62
2023/07/12 15:05:55;;;;;;;;;;;;;;;;;;4983569;28;20040;-63
2023/07/12 15:08:22;;;;;;;;;;;;;;;;;;4985093;28;20263;-63
2023/07/12 15:10:49;;;;;;;;;;;;;;;;;;4980453;28;19992;-62
2023/07/12 15:13:16;;;;;;;;;;;;;;;;;;4984845;28;19921;-63
2023/07/12 15:15:43;;;;;;;;;;;;;;;;;;4986933;28;20060;-63
2023/07/12 15:18:10;;;;;;;;;;;;;;;;;;4989454;28;19934;-63
2023/07/12 15:20:36;;;;;;;;;;;;;;;;;;4985081;28;19968;-64
2023/07/12 15:23:03;;;;;;;;;;;;;;;;;;4982585;28;19922;-64
2023/07/12 15:25:30;;;;;;;;;;;;;;;;;;4982683;28;19929;-64
2023/07/12 15:27:57;;;;;;;;;;;;;;;;;;4986332;28;19977;-63
2023/07/12 15:30:24;;;;;;;;;;;;;;;;;;4980801;28;19930;-63
2023/07/12 15:32:51;;;;;;;;;;;;;;;;;;4980988;28;19976;-70
2023/07/12 15:35:18;;;;;;;;;;;;;;;;;;4983908;28;19922;-65
2023/07/12 15:37:44;;;;;;;;;;;;;;;;;;4987628;28;19921;-65
2023/07/12 15:40:13;;;;;;;;;;;;;;;;;;4982787;28;20021;-63
2023/07/12 15:42:40;;;;;;;;;;;;;;;;;;4988695;28;19925;-63
2023/07/12 15:45:07;;;;;;;;;;;;;;;;;;4983189;28;19921;-64
2023/07/12 15:47:34;;;;;;;;;;;;;;;;;;4986900;28;19925;-64
2023/07/12 15:50:00;;;;;;;;;;;;;;;;;;4985268;28;19925;-64
2023/07/12 15:52:29;;;;;;;;;;;;;;;;;;4986158;28;19921;-64
2023/07/12 15:54:56;;;;;;;;;;;;;;;;;;4986474;28;20441;-63
2023/07/12 15:57:23;;;;;;;;;;;;;;;;;;4983921;28;20391;-64
2023/07/12 15:59:50;;;;;;;;;;;;;;;;;;4986089;28;19929;-65
2023/07/12 16:02:16;;;;;;;;;;;;;;;;;;4981022;28;19969;-63
2023/07/12 16:04:45;;;;;;;;;;;;;;;;;;4985119;28;19999;-66
2023/07/12 16:07:12;;;;;;;;;;;;;;;;;;4980951;28;20398;-64
2023/07/12 16:09:39;;;;;;;;;;;;;;;;;;4972868;28;20541;-64
2023/07/12 16:12:06;;;;;;;;;;;;;;;;;;4972311;28;20272;-65
2023/07/12 16:14:34;;;;;;;;;;;;;;;;;;4972495;28;19922;-65
2023/07/12 16:17:02;;;;;;;;;;;;;;;;;;4986207;28;20390;-65
2023/07/12 16:19:29;;;;;;;;;;;;;;;;;;4983078;28;19922;-63
2023/07/12 16:21:56;;;;;;;;;;;;;;;;;;4986325;28;19926;-63
2023/07/12 16:24:23;;;;;;;;;;;;;;;;;;4983149;28;19922;-63
2023/07/12 16:26:50;;;;;;;;;;;;;;;;;;4983588;28;19926;-61